Excellent Pescadores — HORK — position and weather

sailwx.info

Track history (hours):
 
Tides and Currents Weather Stations Pressure Air Temp Water Temp Dewpoint Dewpoint Depression Visibility Wind Speed Wind Dir Waves Ship Positions

Excellent Pescadores

Last reported at 2017-May-16 22:22 UTC. Time now 2017-May-22 17:20 UTC.
Position N 31°11' E 122°10'.

Length 148 m; draft 9 m.

Type: Cargo ship. MMSI: 356291000.

Date/timePositionNaut miles runAvg speedWind from/ knotsBaromVisibWave heightAir tempDewpointWater temp
2017-May-16 22:22N 31°11' E 122°10'512.9
2017-May-16 21:59N 31°14' E 122°05'612.2
2017-May-16 21:30N 31°15' E 121°59'611.5
2017-May-16 21:00N 31°16' E 121°52'510.8
2017-May-16 20:30N 31°18' E 121°46'510.3
2017-May-16 20:00N 31°20' E 121°41'5 9.6
2017-May-16 19:30N 31°23' E 121°36'4 8.9
2017-May-16 19:00N 31°25' E 121°31'4 7.8
2017-May-16 18:29N 31°28' E 121°28'5 9.7
2017-May-16 18:00N 31°31' E 121°24'510.4
2017-May-16 17:30N 31°34' E 121°19'611.7
2017-May-16 17:00N 31°38' E 121°14'913.0
2017-May-16 16:19N 31°44' E 121°06'  
2017-May-13 11:35N 31°42' E 121°10'1 9.3
2017-May-13 11:30N 31°41' E 121°11'5 9.1
2017-May-13 10:59N 31°38' E 121°15'5 9.5
2017-May-13 10:30N 31°35' E 121°18'5 9.9
2017-May-13 10:00N 31°31' E 121°23'5 9.8
2017-May-13 09:31N 31°28' E 121°27'5 8.9
2017-May-13 09:00N 31°25' E 121°31'4 7.3
2017-May-13 08:30N 31°23' E 121°35'5 9.3
2017-May-13 08:00N 31°21' E 121°39'4 7.6
2017-May-13 07:30N 31°19' E 121°43'611.5
2017-May-13 07:00N 31°14' E 121°47'612.4
2017-May-13 06:30N 31°10' E 121°52'611.4
2017-May-13 06:00N 31°07' E 121°58'611.1
2017-May-13 05:30N 31°04' E 122°04'710.8
2017-May-13 04:51N 31°03' E 122°12'4 8.0
2017-May-13 04:24N 31°03' E 122°16'5 6.7
2017-May-13 03:38N 31°02' E 122°22'4 9.1
2017-May-13 03:10N 31°01' E 122°27'411.3
2017-May-13 02:48N 31°00' E 122°31'311.2
2017-May-13 02:30N 30°59' E 122°35'911.3
2017-May-13 01:41N 30°57' E 122°46'1 7.6
2017-May-13 01:30N 30°56' E 122°47'2 1.4
2017-May-13 00:14N 30°54' E 122°48'  
Track history (hours):
 
Tides and Currents Weather Stations Pressure Air Temp Water Temp Dewpoint Dewpoint Depression Visibility Wind Speed Wind Dir Waves Ship Positions

Excellent Pescadores

Last reported at 2017-May-16 22:22 UTC. Time now 2017-May-22 17:20 UTC.
Position N 31°11' E 122°10'.

Length 148 m; draft 9 m.

Type: Cargo ship. MMSI: 356291000.

Date/timePositionNaut miles runAvg speedWind from/ knotsBaromVisibWave heightAir tempDewpointWater temp
2017-May-16 22:22N 31°11' E 122°10'512.9
2017-May-16 21:59N 31°14' E 122°05'612.2
2017-May-16 21:30N 31°15' E 121°59'611.5
2017-May-16 21:00N 31°16' E 121°52'510.8
2017-May-16 20:30N 31°18' E 121°46'510.3
2017-May-16 20:00N 31°20' E 121°41'5 9.6
2017-May-16 19:30N 31°23' E 121°36'4 8.9
2017-May-16 19:00N 31°25' E 121°31'4 7.8
2017-May-16 18:29N 31°28' E 121°28'5 9.7
2017-May-16 18:00N 31°31' E 121°24'510.4
2017-May-16 17:30N 31°34' E 121°19'611.7
2017-May-16 17:00N 31°38' E 121°14'913.0
2017-May-16 16:19N 31°44' E 121°06'  
2017-May-13 11:35N 31°42' E 121°10'1 9.3
2017-May-13 11:30N 31°41' E 121°11'5 9.1
2017-May-13 10:59N 31°38' E 121°15'5 9.5
2017-May-13 10:30N 31°35' E 121°18'5 9.9
2017-May-13 10:00N 31°31' E 121°23'5 9.8
2017-May-13 09:31N 31°28' E 121°27'5 8.9
2017-May-13 09:00N 31°25' E 121°31'4 7.3
2017-May-13 08:30N 31°23' E 121°35'5 9.3
2017-May-13 08:00N 31°21' E 121°39'4 7.6
2017-May-13 07:30N 31°19' E 121°43'611.5
2017-May-13 07:00N 31°14' E 121°47'612.4
2017-May-13 06:30N 31°10' E 121°52'611.4
2017-May-13 06:00N 31°07' E 121°58'611.1
2017-May-13 05:30N 31°04' E 122°04'710.8
2017-May-13 04:51N 31°03' E 122°12'4 8.0
2017-May-13 04:24N 31°03' E 122°16'5 6.7
2017-May-13 03:38N 31°02' E 122°22'4 9.1
2017-May-13 03:10N 31°01' E 122°27'411.3
2017-May-13 02:48N 31°00' E 122°31'311.2
2017-May-13 02:30N 30°59' E 122°35'911.3
2017-May-13 01:41N 30°57' E 122°46'1 7.6
2017-May-13 01:30N 30°56' E 122°47'2 1.4
2017-May-13 00:14N 30°54' E 122°48'  

Dump ship's entire track history